createdAt,value
2023-10-14T00:02:16.513Z,18.5
2023-10-14T00:04:46.985Z,18.5
2023-10-14T00:07:17.403Z,18.4
2023-10-14T00:09:47.909Z,18.4
2023-10-14T00:12:18.433Z,18.5
2023-10-14T00:14:52.475Z,18.5
2023-10-14T00:17:23.237Z,18.5
2023-10-14T00:19:53.875Z,18.5
2023-10-14T00:22:24.855Z,18.4
2023-10-14T00:24:54.294Z,18.4
2023-10-14T00:27:28.101Z,18.3
2023-10-14T00:29:59.066Z,18.3
2023-10-14T00:32:30.224Z,18.2
2023-10-14T00:35:01.503Z,18.1
2023-10-14T00:37:32.467Z,18
2023-10-14T00:40:03.423Z,17.9
2023-10-14T00:42:34.339Z,17.8
2023-10-14T00:45:04.884Z,17.8
2023-10-14T00:47:35.169Z,17.7
2023-10-14T00:50:06.376Z,17.6
2023-10-14T00:52:36.700Z,17.6
2023-10-14T00:55:08.028Z,17.6
2023-10-14T00:57:38.395Z,17.5
2023-10-14T01:00:09.624Z,17.6
2023-10-14T01:02:40.278Z,17.6
2023-10-14T01:05:10.747Z,17.6
2023-10-14T01:07:42.179Z,17.7
2023-10-14T01:10:13.701Z,17.8
2023-10-14T01:12:44.665Z,17.8
2023-10-14T01:15:15.802Z,17.9
2023-10-14T01:17:46.937Z,17.9
2023-10-14T01:20:17.820Z,17.9
2023-10-14T01:22:48.986Z,17.9
2023-10-14T01:25:19.913Z,17.9
2023-10-14T01:27:50.262Z,17.9
2023-10-14T01:30:21.333Z,17.8
2023-10-14T01:32:52.369Z,17.9
2023-10-14T01:35:22.398Z,17.9
2023-10-14T01:37:53.262Z,17.9
2023-10-14T01:40:24.090Z,17.8
2023-10-14T01:42:55.450Z,17.8
2023-10-14T01:45:26.338Z,17.9
2023-10-14T01:47:57.400Z,17.9
2023-10-14T01:50:28.155Z,17.9
2023-10-14T01:52:58.780Z,17.9
2023-10-14T01:55:29.440Z,17.9
2023-10-14T01:58:00.338Z,17.8
2023-10-14T02:00:30.423Z,17.9
2023-10-14T02:03:01.284Z,18
2023-10-14T02:05:32.548Z,18
2023-10-14T02:08:03.669Z,18
2023-10-14T02:10:34.952Z,18
2023-10-14T02:13:06.330Z,18
2023-10-14T02:15:37.581Z,18
2023-10-14T02:18:06.711Z,18.1
2023-10-14T02:20:37.482Z,18
2023-10-14T02:23:08.723Z,18
2023-10-14T02:25:39.950Z,18
2023-10-14T02:28:10.523Z,18.1
2023-10-14T02:30:41.261Z,18
2023-10-14T02:33:12.167Z,18
2023-10-14T02:35:43.339Z,18.1
2023-10-14T02:38:13.845Z,18.1
2023-10-14T02:40:45.055Z,18.2
2023-10-14T02:43:15.657Z,18.1
2023-10-14T02:45:46.343Z,18.1
2023-10-14T02:48:17.057Z,18.2
2023-10-14T02:50:47.571Z,18.2
2023-10-14T02:53:18.189Z,18.3
2023-10-14T02:55:48.737Z,18.3
2023-10-14T02:58:19.374Z,18.2
2023-10-14T03:00:50.155Z,18.3
2023-10-14T03:03:21.460Z,18.3
2023-10-14T03:05:52.663Z,18.3
2023-10-14T03:08:23.549Z,18.3
2023-10-14T03:10:54.081Z,18.3
2023-10-14T03:13:24.721Z,18.3
2023-10-14T03:15:55.483Z,18.2
2023-10-14T03:18:26.044Z,18.2
2023-10-14T03:20:56.720Z,18.2
2023-10-14T03:23:27.228Z,18.2
2023-10-14T03:25:57.786Z,18.2
2023-10-14T03:28:28.671Z,18.2
2023-10-14T03:30:59.874Z,18.2
2023-10-14T03:33:30.292Z,18.1
2023-10-14T03:36:01.163Z,18.2
2023-10-14T03:38:32.307Z,18.3
2023-10-14T03:41:03.733Z,18.3
2023-10-14T03:43:35.235Z,18.3
2023-10-14T03:46:06.436Z,18.3
2023-10-14T03:48:37.152Z,18.2
2023-10-14T03:51:08.984Z,18.2
2023-10-14T03:53:39.313Z,18.2
2023-10-14T03:56:09.927Z,18.1
2023-10-14T03:58:40.968Z,18.1
2023-10-14T04:01:11.734Z,18.2
2023-10-14T04:03:42.324Z,18.2
2023-10-14T04:06:13.091Z,18.2
2023-10-14T04:08:44.197Z,18.3
2023-10-14T04:11:14.481Z,18.4
2023-10-14T04:13:45.029Z,18.4
2023-10-14T04:16:16.601Z,18.3
2023-10-14T04:18:47.549Z,18.3
2023-10-14T04:21:17.671Z,18.3
2023-10-14T04:23:48.769Z,18.3
2023-10-14T04:26:20.259Z,18.2
2023-10-14T04:28:51.703Z,18.2
2023-10-14T04:31:22.759Z,18.2
2023-10-14T04:33:53.165Z,18.2
2023-10-14T04:36:23.697Z,18.1
2023-10-14T04:38:54.829Z,18.1
2023-10-14T04:41:25.843Z,18
2023-10-14T04:43:56.776Z,18
2023-10-14T04:46:27.259Z,17.8
2023-10-14T04:48:58.256Z,17.7
2023-10-14T04:51:29.183Z,17.7
2023-10-14T04:53:59.373Z,17.7
2023-10-14T04:56:31.516Z,17.7
2023-10-14T04:59:01.785Z,17.5
2023-10-14T05:01:32.705Z,17.3
2023-10-14T05:04:03.242Z,17.2
2023-10-14T05:06:33.868Z,17
2023-10-14T05:09:04.419Z,17
2023-10-14T05:11:35.067Z,17.1
2023-10-14T05:14:06.524Z,16.9
2023-10-14T05:16:37.087Z,17
2023-10-14T05:19:07.752Z,17
2023-10-14T05:21:38.272Z,17
2023-10-14T05:24:09.374Z,17.1
2023-10-14T05:26:39.904Z,17.2
2023-10-14T05:29:11.154Z,17.2
2023-10-14T05:31:41.583Z,17.3
2023-10-14T05:34:12.337Z,17.3
2023-10-14T05:36:42.834Z,17.3
2023-10-14T05:39:13.855Z,17.3
2023-10-14T05:41:44.945Z,17.4
2023-10-14T05:44:15.952Z,17.5
2023-10-14T05:46:47.547Z,17.6
2023-10-14T05:49:18.772Z,17.6
2023-10-14T05:51:49.862Z,17.7
2023-10-14T05:54:20.367Z,17.7
2023-10-14T05:56:50.526Z,17.7
2023-10-14T05:59:21.705Z,17.8
2023-10-14T06:01:51.898Z,17.9
2023-10-14T06:04:21.144Z,17.9
2023-10-14T06:06:51.531Z,17.9
2023-10-14T06:09:23.222Z,18
2023-10-14T06:11:54.105Z,18
2023-10-14T06:14:26.110Z,18.1
2023-10-14T06:16:57.637Z,18.1
2023-10-14T06:19:28.821Z,18.2
2023-10-14T06:21:59.600Z,18.3
2023-10-14T06:24:29.912Z,18.3
2023-10-14T06:27:00.367Z,18.4
2023-10-14T06:29:31.008Z,18.3
2023-10-14T06:32:13.026Z,18.5
2023-10-14T06:34:31.962Z,18.5
2023-10-14T06:37:02.900Z,18.6
2023-10-14T06:39:33.326Z,18.5
2023-10-14T06:42:04.122Z,18.6
2023-10-14T06:44:34.657Z,18.7
2023-10-14T06:47:05.206Z,18.9
2023-10-14T06:49:35.912Z,18.9
2023-10-14T06:52:06.917Z,18.9
2023-10-14T06:54:37.259Z,19
2023-10-14T06:57:07.963Z,19
2023-10-14T06:59:39.092Z,19.2
2023-10-14T07:02:09.079Z,19.3
2023-10-14T07:04:40.537Z,19.4
2023-10-14T07:07:12.690Z,19.5
2023-10-14T07:09:42.086Z,19.6
2023-10-14T07:12:12.813Z,19.8
2023-10-14T07:14:44.094Z,19.9
2023-10-14T07:17:13.200Z,20
2023-10-14T07:19:43.881Z,20
2023-10-14T07:22:15.011Z,20.1
2023-10-14T07:24:45.976Z,20.1
2023-10-14T07:27:16.691Z,20.3
2023-10-14T07:29:47.677Z,20.4
2023-10-14T07:32:18.418Z,20.4
2023-10-14T07:34:49.948Z,20.5
2023-10-14T07:37:21.022Z,20.6
2023-10-14T07:39:51.491Z,20.7
2023-10-14T07:42:23.018Z,20.8
2023-10-14T07:44:53.831Z,20.8
2023-10-14T07:47:24.561Z,21
2023-10-14T07:49:55.485Z,21.1
2023-10-14T07:52:26.394Z,21.1
2023-10-14T07:54:57.202Z,21.2
2023-10-14T07:57:28.180Z,21.3
2023-10-14T07:59:58.809Z,21.4
2023-10-14T08:02:27.860Z,21.5
2023-10-14T08:04:58.809Z,21.6
2023-10-14T08:07:30.455Z,21.7
2023-10-14T08:10:01.107Z,21.8
2023-10-14T08:12:30.574Z,21.9
2023-10-14T08:15:01.980Z,22
2023-10-14T08:17:32.263Z,22
2023-10-14T08:20:02.795Z,22.1
2023-10-14T08:22:33.381Z,22.3
2023-10-14T08:25:04.583Z,22.3
2023-10-14T08:27:35.224Z,22.4
2023-10-14T08:30:05.593Z,22.4
2023-10-14T08:32:34.665Z,22.5
2023-10-14T08:35:05.493Z,22.6
2023-10-14T08:37:36.533Z,22.7
2023-10-14T08:40:07.198Z,22.9
2023-10-14T08:42:37.660Z,23
2023-10-14T08:45:08.749Z,23.1
2023-10-14T08:47:40.471Z,23.1
2023-10-14T08:50:10.948Z,23.2
2023-10-14T08:52:41.946Z,23.3
2023-10-14T08:55:13.354Z,23.4
2023-10-14T08:57:43.467Z,23.4
2023-10-14T09:00:14.048Z,23.5
2023-10-14T09:02:44.447Z,23.7
2023-10-14T09:05:15.169Z,23.7
2023-10-14T09:07:45.836Z,23.7
2023-10-14T09:10:16.824Z,23.9
2023-10-14T09:12:47.610Z,24
2023-10-14T09:15:18.741Z,24.1
2023-10-14T09:17:49.175Z,24.2
2023-10-14T09:20:19.694Z,24.3
2023-10-14T09:22:50.554Z,24.4
2023-10-14T09:25:21.911Z,24.4
2023-10-14T09:27:52.840Z,24.4
2023-10-14T09:30:23.580Z,24.5
2023-10-14T09:32:54.851Z,24.5
2023-10-14T09:35:25.905Z,24.7
2023-10-14T09:37:56.828Z,24.8
2023-10-14T09:40:27.537Z,24.8
2023-10-14T09:42:59.598Z,24.9
2023-10-14T09:45:30.126Z,25
2023-10-14T09:48:00.676Z,25
2023-10-14T09:50:38.985Z,24.8
2023-10-14T09:53:09.932Z,24.9
2023-10-14T09:55:40.460Z,24.8
2023-10-14T09:58:11.046Z,25
2023-10-14T10:00:41.611Z,25.1
2023-10-14T10:03:12.328Z,25.1
2023-10-14T10:05:43.080Z,25.1
2023-10-14T10:08:13.537Z,25.3
2023-10-14T10:10:44.398Z,25.3
2023-10-14T10:13:13.601Z,25.4
2023-10-14T10:15:43.981Z,25.5
2023-10-14T10:18:14.761Z,25.5
2023-10-14T10:20:45.016Z,25.5
2023-10-14T10:23:15.790Z,25.6
2023-10-14T10:25:46.503Z,25.6
2023-10-14T10:28:17.658Z,25.7
2023-10-14T10:30:49.350Z,25.8
2023-10-14T10:33:19.886Z,25.8
2023-10-14T10:35:50.891Z,25.8
2023-10-14T10:38:21.602Z,25.8
2023-10-14T10:40:52.574Z,25.8
2023-10-14T10:43:23.637Z,25.9
2023-10-14T10:45:54.606Z,25.9
2023-10-14T10:48:25.247Z,25.9
2023-10-14T10:50:55.986Z,26
2023-10-14T10:53:27.496Z,26
2023-10-14T10:55:58.394Z,26
2023-10-14T10:58:28.840Z,26.1
2023-10-14T11:00:59.388Z,26
2023-10-14T11:03:30.145Z,26.1
2023-10-14T11:06:01.332Z,26.1
2023-10-14T11:08:32.131Z,26.3
2023-10-14T11:11:03.129Z,26.3
2023-10-14T11:13:34.191Z,26.3
2023-10-14T11:16:05.168Z,26.4
2023-10-14T11:18:39.227Z,26.4
2023-10-14T11:21:06.919Z,26.5
2023-10-14T11:23:37.962Z,26.5
2023-10-14T11:26:08.832Z,26.5
2023-10-14T11:28:39.733Z,26.6
2023-10-14T11:31:11.217Z,26.6
2023-10-14T11:33:42.368Z,26.6
2023-10-14T11:36:13.348Z,26.5
2023-10-14T11:38:44.420Z,26.6
2023-10-14T11:41:15.577Z,26.7
2023-10-14T11:43:46.049Z,26.7
2023-10-14T11:46:16.629Z,26.8
2023-10-14T11:48:47.141Z,26.8
2023-10-14T11:51:17.797Z,26.8
2023-10-14T11:53:48.539Z,26.9
2023-10-14T11:56:19.674Z,26.9
2023-10-14T11:58:51.180Z,27
2023-10-14T12:01:21.951Z,27
2023-10-14T12:03:53.225Z,27
2023-10-14T12:06:24.272Z,26.9
2023-10-14T12:08:55.360Z,27.1
2023-10-14T12:11:25.978Z,27.1
2023-10-14T12:13:56.368Z,27.1
2023-10-14T12:16:26.935Z,27
2023-10-14T12:18:57.421Z,27.2
2023-10-14T12:21:28.625Z,27.2
2023-10-14T12:23:59.793Z,27.3
2023-10-14T12:26:38.555Z,27.3
2023-10-14T12:29:01.821Z,27.3
2023-10-14T12:31:32.927Z,27.4
2023-10-14T12:34:03.790Z,27.4
2023-10-14T12:36:34.978Z,27.5
2023-10-14T12:39:06.016Z,27.5
2023-10-14T12:41:37.034Z,27.5
2023-10-14T12:44:10.950Z,27.5
2023-10-14T12:46:41.984Z,27.6
2023-10-14T12:49:13.095Z,27.6
2023-10-14T12:51:43.887Z,27.7
2023-10-14T12:54:14.807Z,27.8
2023-10-14T12:56:45.576Z,27.8
2023-10-14T12:59:16.403Z,27.9
2023-10-14T13:01:46.981Z,28
2023-10-14T13:04:18.744Z,28
2023-10-14T13:06:48.995Z,28
2023-10-14T13:09:20.068Z,28
2023-10-14T13:11:51.193Z,28.1
2023-10-14T13:14:22.553Z,28.2
2023-10-14T13:16:53.507Z,28.1
2023-10-14T13:19:24.314Z,27.9
2023-10-14T13:21:55.548Z,27.8
2023-10-14T13:24:26.790Z,27.7
2023-10-14T13:26:57.712Z,27.6
2023-10-14T13:29:28.734Z,27.5
2023-10-14T13:31:59.746Z,27.3
2023-10-14T13:34:30.621Z,27.4
2023-10-14T13:37:01.597Z,27.3
2023-10-14T13:39:32.571Z,27.2
2023-10-14T13:42:03.596Z,27.2
2023-10-14T13:44:34.117Z,27
2023-10-14T13:47:05.205Z,27
2023-10-14T13:49:35.888Z,26.9
2023-10-14T13:52:06.661Z,26.9
2023-10-14T13:54:37.695Z,26.8
2023-10-14T13:57:08.901Z,26.8
2023-10-14T13:59:39.590Z,26.7
2023-10-14T14:02:10.276Z,26.6
2023-10-14T14:04:41.194Z,26.5
2023-10-14T14:07:12.120Z,26.5
2023-10-14T14:09:43.090Z,26.4
2023-10-14T14:12:14.058Z,26.5
2023-10-14T14:14:45.137Z,26.4
2023-10-14T14:17:16.182Z,26.4
2023-10-14T14:19:46.782Z,26.3
2023-10-14T14:22:17.683Z,26.3
2023-10-14T14:24:48.782Z,26.3
2023-10-14T14:27:19.651Z,26.1
2023-10-14T14:29:50.333Z,26.1
2023-10-14T14:32:20.996Z,26.1
2023-10-14T14:34:51.894Z,26.1
2023-10-14T14:37:23.243Z,26.1
2023-10-14T14:39:54.308Z,26.1
2023-10-14T14:42:25.083Z,26
2023-10-14T14:44:56.240Z,26
2023-10-14T14:47:27.253Z,25.9
2023-10-14T14:49:58.043Z,25.9
2023-10-14T14:52:29.366Z,25.8
2023-10-14T14:55:00.541Z,25.8
2023-10-14T14:57:31.688Z,25.8
2023-10-14T15:00:02.417Z,25.7
2023-10-14T15:02:33.295Z,25.7
2023-10-14T15:05:04.319Z,25.7
2023-10-14T15:07:35.206Z,25.6
2023-10-14T15:10:06.161Z,25.5
2023-10-14T15:12:37.255Z,25.5
2023-10-14T15:15:09.281Z,25.4
2023-10-14T15:17:38.386Z,25.4
2023-10-14T15:20:08.655Z,25.3
2023-10-14T15:22:40.611Z,25.3
2023-10-14T15:25:09.643Z,25.3
2023-10-14T15:27:40.113Z,25.2
2023-10-14T15:30:10.159Z,25.2
2023-10-14T15:32:41.053Z,25.1
2023-10-14T15:35:11.843Z,25
2023-10-14T15:37:44.091Z,25
2023-10-14T15:40:12.008Z,24.9
2023-10-14T15:42:42.573Z,24.9
2023-10-14T15:45:12.822Z,24.8
2023-10-14T15:47:43.548Z,24.8
2023-10-14T15:50:13.984Z,24.7
2023-10-14T15:52:44.212Z,24.6
2023-10-14T15:55:13.285Z,24.6
2023-10-14T15:57:44.086Z,24.5
2023-10-14T16:00:15.234Z,24.4
2023-10-14T16:02:46.003Z,24.3
2023-10-14T16:05:16.832Z,24.3
2023-10-14T16:07:47.556Z,24.2
2023-10-14T16:10:18.687Z,24.2
2023-10-14T16:12:49.588Z,24
2023-10-14T16:15:20.688Z,24
2023-10-14T16:17:49.568Z,23.9
2023-10-14T16:20:21.380Z,23.8
2023-10-14T16:22:52.299Z,23.7
2023-10-14T16:25:23.215Z,23.7
2023-10-14T16:27:53.863Z,23.6
2023-10-14T16:30:24.866Z,23.6
2023-10-14T16:32:55.880Z,23.5
2023-10-14T16:35:26.705Z,23.5
2023-10-14T16:37:57.732Z,23.4
2023-10-14T16:40:28.862Z,23.3
2023-10-14T16:42:59.773Z,23.3
2023-10-14T16:45:30.132Z,23.2
2023-10-14T16:48:01.198Z,23.1
2023-10-14T16:50:30.367Z,23.1
2023-10-14T16:53:00.916Z,23
2023-10-14T16:55:31.835Z,23
2023-10-14T16:58:02.353Z,22.9
2023-10-14T17:00:33.217Z,22.9
2023-10-14T17:03:03.920Z,22.8
2023-10-14T17:05:34.371Z,22.8
2023-10-14T17:08:05.540Z,22.7
2023-10-14T17:10:34.983Z,22.6
2023-10-14T17:13:05.308Z,22.5
2023-10-14T17:15:36.199Z,22.4
2023-10-14T17:18:07.048Z,22.4
2023-10-14T17:20:38.103Z,22.3
2023-10-14T17:23:08.330Z,22.2
2023-10-14T17:25:39.135Z,22.2
2023-10-14T17:28:10.167Z,22.1
2023-10-14T17:30:43.100Z,22.1
2023-10-14T17:33:14.078Z,22
2023-10-14T17:35:44.956Z,21.9
2023-10-14T17:38:15.965Z,21.9
2023-10-14T17:40:46.940Z,21.8
2023-10-14T17:43:17.764Z,21.7
2023-10-14T17:45:48.735Z,21.7
2023-10-14T17:48:19.966Z,21.6
2023-10-14T17:50:50.740Z,21.6
2023-10-14T17:53:21.284Z,21.5
2023-10-14T17:55:52.006Z,21.5
2023-10-14T17:58:22.887Z,21.5
2023-10-14T18:00:53.707Z,21.4
2023-10-14T18:03:24.369Z,21.4
2023-10-14T18:05:55.333Z,21.3
2023-10-14T18:08:26.117Z,21.2
2023-10-14T18:10:57.008Z,21.1
2023-10-14T18:13:27.946Z,21
2023-10-14T18:15:58.469Z,21
2023-10-14T18:18:29.345Z,20.9
2023-10-14T18:21:00.254Z,20.9
2023-10-14T18:23:30.500Z,20.8
2023-10-14T18:26:01.039Z,20.7
2023-10-14T18:28:31.678Z,20.7
2023-10-14T18:31:02.748Z,20.7
2023-10-14T18:33:33.728Z,20.6
2023-10-14T18:36:04.601Z,20.6
2023-10-14T18:38:35.458Z,20.5
2023-10-14T18:41:06.692Z,20.4
2023-10-14T18:43:37.547Z,20.4
2023-10-14T18:46:08.695Z,20.3
2023-10-14T18:48:39.689Z,20.3
2023-10-14T18:51:10.641Z,20.3
2023-10-14T18:53:41.219Z,20.2
2023-10-14T18:56:12.117Z,20.1
2023-10-14T18:58:43.028Z,20.1
2023-10-14T19:01:13.877Z,20.1
2023-10-14T19:03:44.688Z,20
2023-10-14T19:06:15.734Z,20
2023-10-14T19:08:46.380Z,20
2023-10-14T19:11:15.221Z,19.9
2023-10-14T19:13:46.089Z,19.9
2023-10-14T19:16:16.787Z,19.9
2023-10-14T19:18:47.544Z,19.9
2023-10-14T19:21:18.244Z,19.9
2023-10-14T19:23:48.445Z,19.9
2023-10-14T19:26:19.367Z,19.8
2023-10-14T19:28:50.229Z,19.8
2023-10-14T19:31:20.924Z,19.8
2023-10-14T19:33:51.565Z,19.8
2023-10-14T19:36:22.280Z,19.8
2023-10-14T19:38:53.892Z,19.8
2023-10-14T19:41:24.962Z,19.7
2023-10-14T19:43:55.800Z,19.7
2023-10-14T19:46:26.469Z,19.7
2023-10-14T19:48:57.223Z,19.7
2023-10-14T19:51:26.089Z,19.6
2023-10-14T19:53:57.008Z,19.6
2023-10-14T19:56:27.928Z,19.6
2023-10-14T19:58:59.133Z,19.6
2023-10-14T20:01:29.928Z,19.6
2023-10-14T20:04:00.639Z,19.5
2023-10-14T20:06:31.365Z,19.5
2023-10-14T20:09:01.886Z,19.4
2023-10-14T20:11:34.287Z,19.4
2023-10-14T20:14:03.263Z,19.3
2023-10-14T20:16:33.946Z,19.3
2023-10-14T20:19:04.589Z,19.3
2023-10-14T20:21:35.476Z,19.3
2023-10-14T20:24:06.536Z,19.3
2023-10-14T20:26:37.440Z,19.3
2023-10-14T20:29:08.441Z,19.2
2023-10-14T20:31:39.543Z,19.3
2023-10-14T20:34:10.376Z,19.2
2023-10-14T20:36:41.156Z,19.2
2023-10-14T20:39:12.215Z,19.2
2023-10-14T20:44:12.397Z,19.3
2023-10-14T20:46:41.441Z,19.2
2023-10-14T20:49:12.201Z,19
2023-10-14T20:51:41.070Z,19
2023-10-14T20:54:11.850Z,19
2023-10-14T20:56:42.979Z,19
2023-10-14T20:59:13.706Z,18.9
2023-10-14T21:01:42.619Z,18.9
2023-10-14T21:04:19.865Z,18.8
2023-10-14T21:06:48.458Z,18.7
2023-10-14T21:09:19.626Z,18.7
2023-10-14T21:11:51.080Z,18.8
2023-10-14T21:14:21.920Z,18.8
2023-10-14T21:16:52.569Z,18.7
2023-10-14T21:19:23.825Z,18.8
2023-10-14T21:21:54.441Z,18.8
2023-10-14T21:24:25.280Z,18.7
2023-10-14T21:26:56.001Z,18.6
2023-10-14T21:29:25.604Z,18.6
2023-10-14T21:31:57.305Z,18.5
2023-10-14T21:34:30.983Z,18.4
2023-10-14T21:37:01.981Z,18.4
2023-10-14T21:39:33.062Z,18.4
2023-10-14T21:42:03.643Z,18.3
2023-10-14T21:44:34.430Z,18.3
2023-10-14T21:47:05.764Z,18.2
2023-10-14T21:49:36.539Z,18
2023-10-14T21:52:07.381Z,18
2023-10-14T21:54:37.695Z,18
2023-10-14T21:57:08.765Z,18.1
2023-10-14T21:59:39.646Z,18.1
2023-10-14T22:02:10.757Z,18.1
2023-10-14T22:04:41.719Z,18.1
2023-10-14T22:07:12.606Z,18
2023-10-14T22:09:43.658Z,18
2023-10-14T22:12:14.420Z,18
2023-10-14T22:14:45.445Z,18
2023-10-14T22:17:15.720Z,17.9
2023-10-14T22:19:46.404Z,17.9
2023-10-14T22:22:17.454Z,17.8
2023-10-14T22:24:48.608Z,17.8
2023-10-14T22:27:17.657Z,17.8
2023-10-14T22:29:48.483Z,17.7
2023-10-14T22:32:19.561Z,17.7
2023-10-14T22:34:50.440Z,17.6
2023-10-14T22:37:34.449Z,17.6
2023-10-14T22:39:52.080Z,17.7
2023-10-14T22:42:22.177Z,17.6
2023-10-14T22:44:53.028Z,17.7
2023-10-14T22:47:24.148Z,17.7
2023-10-14T22:49:54.616Z,17.6
2023-10-14T22:52:26.013Z,17.6
2023-10-14T22:54:57.097Z,17.6
2023-10-14T22:57:28.530Z,17.5
2023-10-14T22:59:59.460Z,17.5
2023-10-14T23:02:30.791Z,17.5
2023-10-14T23:05:01.975Z,17.5
2023-10-14T23:07:32.603Z,17.5
2023-10-14T23:10:03.525Z,17.4
2023-10-14T23:12:34.793Z,17.4
2023-10-14T23:15:05.823Z,17.4
2023-10-14T23:17:37.175Z,17.4
2023-10-14T23:20:07.508Z,17.5
2023-10-14T23:22:38.760Z,17.4
2023-10-14T23:25:09.660Z,17.4
2023-10-14T23:27:40.768Z,17.4
2023-10-14T23:30:11.374Z,17.4
2023-10-14T23:32:42.464Z,17.4
2023-10-14T23:35:13.479Z,17.4
2023-10-14T23:37:44.223Z,17.5
2023-10-14T23:40:16.548Z,17.4
2023-10-14T23:42:47.779Z,17.4
2023-10-14T23:45:18.808Z,17.4
2023-10-14T23:47:50.220Z,17.4
2023-10-14T23:50:21.365Z,17.4
2023-10-14T23:52:52.635Z,17.4
2023-10-14T23:55:23.244Z,17.4
2023-10-14T23:57:54.477Z,17.4
